Flight Track Log - Related Links

Times and Time Zones

All times are in EDT time to prevent confusion due to time zone crossing. See the N733EN flight status page for this flight to view local times or setup timezone preferences in your user account.

Time Position Orientation Groundspeed Altitude Reporting Facility
EDT Latitude Longitude Course Direction KTS MPH feet Rate Location/Type
Fri 12:27:00 PM 37.1992 -80.1174 219° Southwest  Level FlightAware Approximate
Fri 12:27:56 PM 37.1769 -80.0900 224° Southwest 102 117 6,000  Level Atlanta Center
Fri 12:28:00 PM 37.1729 -80.1438 219° Southwest  Level FlightAware Approximate
Fri 12:28:56 PM 37.1631 -80.1036 218° Southwest 94 108 6,900  Level Atlanta Center
Fri 12:29:00 PM 37.1477 -80.1713 238° Southwest  Level FlightAware Approximate
Fri 12:29:56 PM 37.1431 -80.1306 227° Southwest 94 108 7,600  Level Atlanta Center
Fri 12:30:00 PM 37.1286 -80.2058 224° Southwest  Level FlightAware Approximate
Fri 12:30:56 PM 37.1269 -80.1522 227° Southwest 94 108 7,900  Level Atlanta Center
Fri 12:31:00 PM 37.1043 -80.2350 224° Southwest  Level FlightAware Approximate
Fri 12:31:56 PM 37.1050 -80.1847 230° Southwest 104 120 7,800  Level Atlanta Center
Fri 12:32:00 PM 37.0800 -80.2642 224° Southwest  Level FlightAware Approximate
Fri 12:32:56 PM 37.0853 -80.2167 232° Southwest 116 133 7,900  Level Atlanta Center
Fri 12:33:00 PM 37.0557 -80.2933 224° Southwest  Level FlightAware Approximate
Fri 12:33:56 PM 37.0711 -80.2358 227° Southwest 116 133 8,000  Level Atlanta Center
Fri 12:34:56 PM 37.0492 -80.2628 224° Southwest 111 128 7,900 -50 Descending Atlanta Center
Fri 12:35:56 PM 37.0292 -80.2922 230° Southwest 111 128 7,900  Level Atlanta Center
Fri 12:36:56 PM 37.0050 -80.3247 227° Southwest 117 135 7,900 -50 Level Atlanta Center
Fri 12:37:56 PM 36.9831 -80.3517 224° Southwest 117 135 7,800  Descending Atlanta Center
Fri 12:38:56 PM 36.9631 -80.3811 230° Southwest 117 135 7,900 50 Climbing Atlanta Center
Fri 12:39:56 PM 36.9408 -80.4081 224° Southwest 117 135 7,900  Level Atlanta Center
Fri 12:40:56 PM 36.9169 -80.4406 227° Southwest 117 135 7,900  Level Atlanta Center
Fri 12:41:56 PM 36.8967 -80.4647 224° Southwest 117 135 7,900 -50 Level Atlanta Center
Fri 12:42:56 PM 36.8725 -80.4944 225° Southwest 117 135 7,800  Descending Atlanta Center
Fri 12:43:56 PM 36.8525 -80.5186 224° Southwest 117 135 7,900 50 Climbing Atlanta Center
Fri 12:44:56 PM 36.8303 -80.5456 224° Southwest 117 135 7,900 50 Level Atlanta Center
Fri 12:45:56 PM 36.8122 -80.5722 230° Southwest 117 135 8,000 -50 Climbing Atlanta Center
Fri 12:46:56 PM 36.7903 -80.6044 230° Southwest 117 135 7,800 -50 Descending Atlanta Center
Fri 12:47:56 PM 36.7681 -80.6339 227° Southwest 122 140 7,900  Climbing Atlanta Center
Fri 12:48:56 PM 36.7481 -80.6606 227° Southwest 116 133 7,800  Descending Atlanta Center
Fri 12:49:56 PM 36.7278 -80.6847 224° Southwest 116 133 7,900  Climbing Atlanta Center
Fri 12:50:56 PM 36.7078 -80.7142 230° Southwest 122 140 7,800  Descending Atlanta Center
Fri 12:51:56 PM 36.6833 -80.7408 221° Southwest 117 135 7,900 50 Climbing Atlanta Center
Fri 12:52:56 PM 36.6614 -80.7728 229° Southwest 117 135 7,900 -50 Level Atlanta Center
Fri 12:53:56 PM 36.6392 -80.8047 229° Southwest 117 135 7,800 -50 Descending Atlanta Center
Fri 12:54:56 PM 36.6150 -80.8342 224° Southwest 123 142 7,800 50 Level Atlanta Center
Fri 12:55:56 PM 36.5950 -80.8636 230° Southwest 123 142 7,900 -50 Climbing Atlanta Center
Fri 12:56:56 PM 36.5686 -80.8931 222° Southwest 123 142 7,700 -50 Descending Atlanta Center
Fri 12:57:56 PM 36.5464 -80.9222 227° Southwest 117 135 7,800  Climbing Atlanta Center
Fri 12:58:56 PM 36.5222 -80.9542 227° Southwest 123 142 7,700  Descending Atlanta Center
Fri 12:59:56 PM 36.4978 -80.9783 218° Southwest 123 142 7,800 50 Climbing Atlanta Center
Fri 01:00:56 PM 36.4736 -81.0103 227° Southwest 123 142 7,800  Level Atlanta Center
Fri 01:01:56 PM 36.4492 -81.0422 226° Southwest 123 142 7,800  Level Atlanta Center
Fri 01:02:56 PM 36.4208 -81.0717 220° Southwest 123 142 7,800  Level Atlanta Center
Fri 01:03:56 PM 36.3964 -81.1008 224° Southwest 123 142 7,800  Level Atlanta Center
Fri 01:04:56 PM 36.3719 -81.1225 216° Southwest 123 142 7,800 50 Level Atlanta Center
Fri 01:05:56 PM 36.3475 -81.1517 224° Southwest 123 142 7,900 -50 Climbing Atlanta Center
Fri 01:06:56 PM 36.3192 -81.1836 222° Southwest 134 154 7,700 50 Descending Atlanta Center
Fri 01:07:56 PM 36.2947 -81.2103 221° Southwest 129 148 8,000 150 Climbing Atlanta Center
Fri 01:08:56 PM 36.2683 -81.2422 224° Southwest 134 154 8,000 -50 Level Atlanta Center
Fri 01:09:56 PM 36.2461 -81.2711 226° Southwest 129 148 7,900 -50 Descending Atlanta Center
Fri 01:10:56 PM 36.2281 -81.3028 235° Southwest 124 143 7,900 50 Level Atlanta Center
Fri 01:11:56 PM 36.2036 -81.3319 224° Southwest 119 137 8,000 50 Climbing Atlanta Center
Fri 01:12:56 PM 36.1833 -81.3608 229° Southwest 119 137 8,000  Level Atlanta Center
Fri 01:13:56 PM 36.1611 -81.3925 229° Southwest 119 137 8,000  Level Atlanta Center
Fri 01:14:56 PM 36.1367 -81.4214 224° Southwest 124 143 8,000 -50 Level Atlanta Center
Fri 01:15:56 PM 36.1122 -81.4506 224° Southwest 124 143 7,900 -50 Descending Atlanta Center
Fri 01:16:56 PM 36.0897 -81.4692 214° Southwest 106 122 7,900 50 Level Atlanta Center
Fri 01:17:56 PM 36.0692 -81.4828 208° Southwest 94 108 8,000 50 Climbing Atlanta Center
Fri 01:18:56 PM 36.0467 -81.5067 221° Southwest 100 115 8,000  Level Atlanta Center
Fri 01:19:56 PM 36.0244 -81.5356 226° Southwest 107 123 8,000  Level Atlanta Center
Fri 01:20:56 PM 36.0019 -81.5592 220° Southwest 112 129 8,000 50 Level Atlanta Center
Fri 01:21:56 PM 35.9856 -81.5778 223° Southwest 101 116 8,100 250 Climbing Atlanta Center
Fri 01:22:56 PM 35.9672 -81.5964 219° Southwest 96 110 8,500 200 Climbing Atlanta Center
Fri 01:23:56 PM 35.9511 -81.6250 235° Southwest 96 110 8,500 50 Level Atlanta Center
Fri 01:24:56 PM 35.9289 -81.6589 231° Southwest 119 137 8,600 100 Climbing Atlanta Center
Fri 01:25:56 PM 35.9003 -81.6958 226° Southwest 135 155 8,700 50 Climbing Atlanta Center
Fri 01:26:56 PM 35.8717 -81.7297 224° Southwest 146 168 8,700 -100 Level Atlanta Center
Fri 01:27:56 PM 35.8453 -81.7639 226° Southwest 146 168 8,500 -50 Descending Atlanta Center
Fri 01:28:56 PM 35.8189 -81.7978 226° Southwest 141 162 8,600 100 Climbing Atlanta Center
Fri 01:29:56 PM 35.7922 -81.8269 222° Southwest 141 162 8,700 -50 Climbing Atlanta Center
Fri 01:30:56 PM 35.7678 -81.8556 224° Southwest 141 162 8,500 100 Descending Atlanta Center
Fri 01:31:56 PM 35.7431 -81.8819 221° Southwest 131 151 8,900 450 Climbing Atlanta Center
Fri 01:32:56 PM 35.7186 -81.9081 221° Southwest 125 144 9,400 250 Climbing Atlanta Center
Fri 01:33:56 PM 35.6939 -81.9369 224° Southwest 131 151 9,400 -100 Level Atlanta Center
Fri 01:34:56 PM 35.6653 -81.9683 222° Southwest 136 157 9,200 -100 Descending Atlanta Center
Fri 01:35:56 PM 35.6408 -81.9944 221° Southwest 131 151 9,200 50 Level Atlanta Center
Fri 01:36:56 PM 35.6203 -82.0181 223° Southwest 115 132 9,300 100 Climbing Atlanta Center
Fri 01:37:56 PM 35.5978 -82.0467 226° Southwest 110 127 9,400 150 Climbing Atlanta Center
Fri 01:38:56 PM 35.5753 -82.0728 223° Southwest 110 127 9,600 100 Climbing Atlanta Center
Fri 01:39:56 PM 35.5547 -82.1014 229° Southwest 116 133 9,600  Level Atlanta Center
Fri 01:40:56 PM 35.5322 -82.1297 226° Southwest 116 133 9,600 -100 Level Atlanta Center
Fri 01:41:56 PM 35.5119 -82.1583 229° Southwest 122 140 9,400 -100 Descending Atlanta Center
Fri 01:42:56 PM 35.4872 -82.1844 221° Southwest 122 140 9,400  Level Atlanta Center
Fri 01:43:56 PM 35.4625 -82.2106 221° Southwest 122 140 9,400  Level Atlanta Center
Fri 01:44:56 PM 35.4358 -82.2367 219° Southwest 122 140 9,400 150 Level Atlanta Center
Fri 01:45:56 PM 35.4092 -82.2628 219° Southwest 122 140 9,700 100 Climbing Atlanta Center
Fri 01:46:56 PM 35.3867 -82.2964 231° Southwest 127 146 9,600 -100 Descending Atlanta Center
Fri 01:47:56 PM 35.3642 -82.3222 223° Southwest 132 152 9,500 -50 Descending Atlanta Center
Fri 01:48:56 PM 35.3478 -82.3506 235° Southwest 124 143 9,500  Level Atlanta Center
Fri 01:49:56 PM 35.3169 -82.3894 226° Southwest 142 163 9,500  Level Atlanta Center
Fri 01:50:56 PM 35.3008 -82.4178 235° Southwest 135 155 9,500  Level Atlanta Center
Fri 01:51:56 PM 35.2803 -82.4511 233° Southwest 126 145 9,500 50 Level Atlanta Center
Fri 01:52:56 PM 35.2578 -82.4822 228° Southwest 150 173 9,600  Climbing Atlanta Center
Fri 01:53:56 PM 35.2333 -82.5233 234° Southwest 148 170 9,500 -100 Descending Atlanta Center
Fri 01:54:56 PM 35.2086 -82.5567 228° Southwest 135 155 9,400 -150 Descending Atlanta Center
Fri 01:55:56 PM 35.1839 -82.5928 230° Southwest 135 155 9,200 -100 Descending Atlanta Center
Fri 01:56:56 PM 35.1633 -82.6186 226° Southwest 130 150 9,200 -50 Level Atlanta Center
Fri 01:57:56 PM 35.1431 -82.6519 233° Southwest 130 150 9,100 50 Descending Atlanta Center
Fri 01:58:56 PM 35.1244 -82.6750 225° Southwest 125 144 9,300 100 Climbing Atlanta Center
Fri 01:59:56 PM 35.1058 -82.6983 226° Southwest 113 130 9,300  Level Atlanta Center
Fri 02:00:56 PM 35.0875 -82.7239 229° Southwest 118 136 9,300 -50 Level Atlanta Center
Fri 02:01:56 PM 35.0708 -82.7469 229° Southwest 106 122 9,200 -50 Descending Atlanta Center
Fri 02:02:56 PM 35.0525 -82.7828 238° Southwest 111 128 9,200 -100 Level Atlanta Center
Fri 02:03:56 PM 35.0361 -82.8111 235° Southwest 114 131 9,000 -200 Descending Atlanta Center
Fri 02:04:56 PM 35.0156 -82.8367 226° Southwest 108 124 8,800 -100 Descending Atlanta Center
Fri 02:05:56 PM 34.9989 -82.8572 225° Southwest 103 119 8,800 100 Level Atlanta Center
Fri 02:06:56 PM 34.9783 -82.8878 231° Southwest 109 125 9,000 150 Climbing Atlanta Center
Fri 02:07:56 PM 34.9600 -82.9186 234° Southwest 114 131 9,100 100 Climbing Atlanta Center
Fri 02:08:56 PM 34.9394 -82.9517 233° Southwest 114 131 9,200 150 Climbing Atlanta Center
Fri 02:09:56 PM 34.9189 -82.9875 235° Southwest 120 138 9,400 -50 Climbing Atlanta Center
Fri 02:10:56 PM 34.8983 -83.0181 231° Southwest 120 138 9,100 -450 Descending Atlanta Center
Fri 02:11:56 PM 34.8797 -83.0564 239° Southwest 132 152 8,500 -500 Descending Atlanta Center
Fri 02:12:56 PM 34.8633 -83.0869 237° Southwest 127 146 8,100 -300 Descending Atlanta Center
Fri 02:13:56 PM 34.8428 -83.1253 237° Southwest 122 140 7,900 -100 Descending Atlanta Center
Fri 02:14:56 PM 34.8158 -83.1558 223° Southwest 128 147 7,900 -50 Level Atlanta Center
Fri 02:15:56 PM 34.7908 -83.1814 220° Southwest 134 154 7,800 -50 Descending Atlanta Center
Fri 02:16:56 PM 34.7661 -83.2044 217° Southwest 124 143 7,800 50 Level Atlanta Center
Fri 02:17:56 PM 34.7369 -83.2375 223° Southwest 129 148 7,900 50 Climbing Atlanta Center
Fri 02:18:56 PM 34.7122 -83.2631 220° Southwest 135 155 7,900 -100 Level Atlanta Center
Fri 02:19:56 PM 34.6875 -83.2986 230° Southwest 135 155 7,700 -250 Descending Atlanta Center
Fri 02:20:56 PM 34.6625 -83.3317 227° Southwest 135 155 7,400 -400 Descending Atlanta Center
Fri 02:21:56 PM 34.6378 -83.3647 228° Southwest 140 161 6,900 -350 Descending Atlanta Center
Fri 02:22:56 PM 34.6108 -83.4003 227° Southwest 140 161 6,700 -350 Descending Atlanta Center
Fri 02:23:56 PM 34.5922 -83.4331 235° Southwest 135 155 6,200 -450 Descending Atlanta Center
Fri 02:24:56 PM 34.5692 -83.4661 230° Southwest 135 155 5,800 -150 Descending Atlanta Center
Fri 02:25:56 PM 34.5528 -83.4967 237° Southwest 130 150 5,900 150 Climbing Atlanta Center
Fri 02:26:56 PM 34.5342 -83.5269 233° Southwest 130 150 6,100  Climbing Atlanta Center
Fri 02:27:56 PM 34.5092 -83.5497 217° Southwest 124 143 5,900 -100 Descending Atlanta Center
Fri 02:28:56 PM 34.4842 -83.5725 217° Southwest 119 137 5,900 100 Level Atlanta Center
Fri 02:29:56 PM 34.4675 -83.5928 225° Southwest 112 129 6,100  Climbing Atlanta Center
Fri 02:30:56 PM 34.4342 -83.6258 219° Southwest 127 146 5,900 -100 Descending Atlanta Center
Fri 02:31:56 PM 34.4114 -83.6536 225° Southwest 127 146 5,900 50 Level Atlanta Center
Fri 02:32:56 PM 34.3822 -83.6739 210° Southwest 122 140 6,000  Climbing Atlanta Center
Fri 02:33:56 PM 34.3594 -83.7042 228° Southwest 127 146 5,900 -50 Descending Atlanta Center
Fri 02:34:56 PM 34.3469 -83.7419 248° West 127 146 5,900  Level Atlanta Center
Fri 02:35:56 PM 34.3367 -83.7772 251° West 132 152 5,900  Level Atlanta Center
Fri 02:38:00 PM 34.3000 -83.8500 239° Southwest 110 127 5,900 34 Level Atlanta TRACON
Fri 02:38:54 PM 34.3000 -83.8833 270° West 109 125 6,000  Climbing Atlanta TRACON
Fri 02:39:54 PM 34.2833 -83.9167 239° Southwest 127 146 5,900 -50 Descending Atlanta TRACON
Fri 02:40:54 PM 34.2667 -83.9500 239° Southwest 118 136 5,900 50 Level Atlanta TRACON
Fri 02:41:54 PM 34.2500 -83.9833 239° Southwest 116 133 6,000 -50 Climbing Atlanta TRACON
Fri 02:42:54 PM 34.2333 -84.0333 248° West 127 146 5,800 -50 Descending Atlanta TRACON
Fri 02:43:54 PM 34.2167 -84.0500 220° Southwest 107 123 5,900 50 Climbing Atlanta TRACON
Fri 02:44:54 PM 34.2000 -84.0833 239° Southwest 124 143 5,900 -50 Level Atlanta TRACON
Fri 02:45:54 PM 34.1833 -84.1333 248° West 131 151 5,800 -200 Descending Atlanta TRACON
Fri 02:46:54 PM 34.1667 -84.1667 239° Southwest 118 136 5,500 -347 Descending Atlanta TRACON
Fri 02:47:55 PM 34.1500 -84.1833 220° Southwest 116 133 5,100 -496 Descending Atlanta TRACON
Fri 02:48:55 PM 34.1333 -84.2333 248° West 133 153 4,500 -550 Descending Atlanta TRACON
Fri 02:49:55 PM 34.1333 -84.2667 270° West 114 131 4,000 -384 Descending Atlanta TRACON
Fri 02:51:00 PM 34.1333 -84.3000 270° West 102 117 3,700  Descending Atlanta TRACON
Fri 02:51:55 PM 34.1167 -84.3167 220° Southwest 107 123 4,000 104 Climbing Atlanta TRACON
Fri 02:52:55 PM 34.0833 -84.3167 180° South 134 154 3,900 -50 Descending Atlanta TRACON
Fri 02:53:55 PM 34.0500 -84.3333 203° Southwest 115 132 3,900 100 Level Atlanta TRACON
Fri 02:54:55 PM 34.0167 -84.3500 203° Southwest 125 144 4,100 -100 Climbing Atlanta TRACON
Fri 02:55:55 PM 34.0167 -84.3833 270° West 104 120 3,700 -450 Descending Atlanta TRACON
Fri 02:56:55 PM 34.0167 -84.4167 270° West 108 124 3,200 -400 Descending Atlanta TRACON
Fri 02:57:55 PM 34.0167 -84.4500 270° West 96 110 2,900 -250 Descending Atlanta TRACON
Fri 02:58:55 PM 34.0167 -84.4833 270° West 95 109 2,700 -316 Descending Atlanta TRACON
Fri 02:59:49 PM 34.0167 -84.5167 270° West 108 124 2,300 947 Descending Atlanta TRACON
Fri 03:00:49 PM 34.0167 -84.5500 270° West 102 117 4,500 2,200 Climbing Atlanta TRACON
Fri 03:02:00 PM 34.0000 -84.5833 270° West  Level FlightAware Approximate
Fri 03:09:00 PM 34.0132 -84.5971 270° West  Level Estimated
Fri 03:10:00 PM 34.0132 -84.5971 270° West  Level Estimated

Login

Don't have an account? Register now (free) for customized features, flight alerts, and more!